createdAt,value
2023-06-16T00:00:13.013Z,71.04
2023-06-16T00:01:16.624Z,70.91
2023-06-16T00:02:22.922Z,70.56
2023-06-16T00:03:25.049Z,70.03
2023-06-16T00:04:28.500Z,69.68
2023-06-16T00:05:31.219Z,70.75
2023-06-16T00:06:33.184Z,70.96
2023-06-16T00:07:36.231Z,70.60
2023-06-16T00:08:38.746Z,71.22
2023-06-16T00:09:40.856Z,70.90
2023-06-16T00:10:42.936Z,71.30
2023-06-16T00:11:44.960Z,71.96
2023-06-16T00:12:47.022Z,71.55
2023-06-16T00:13:49.711Z,71.95
2023-06-16T00:14:51.671Z,71.76
2023-06-16T00:15:53.627Z,72.47
2023-06-16T00:16:58.520Z,71.84
2023-06-16T00:18:01.434Z,71.35
2023-06-16T00:19:03.542Z,71.80
2023-06-16T00:20:08.552Z,71.28
2023-06-16T00:21:11.175Z,70.92
2023-06-16T00:22:13.322Z,71.48
2023-06-16T00:23:17.826Z,72.18
2023-06-16T00:24:19.850Z,71.41
2023-06-16T00:25:21.863Z,71.52
2023-06-16T00:26:27.818Z,71.14
2023-06-16T00:27:29.891Z,71.53
2023-06-16T00:28:33.528Z,71.27
2023-06-16T00:29:35.852Z,71.30
2023-06-16T00:30:37.816Z,71.54
2023-06-16T00:31:39.838Z,71.28
2023-06-16T00:32:41.911Z,71.26
2023-06-16T00:33:43.892Z,71.46
2023-06-16T00:34:46.899Z,72.16
2023-06-16T00:35:48.974Z,71.79
2023-06-16T00:36:51.196Z,71.92
2023-06-16T00:37:53.160Z,71.38
2023-06-16T00:38:55.125Z,71.47
2023-06-16T00:39:57.139Z,72.31
2023-06-16T00:40:59.149Z,72.42
2023-06-16T00:42:04.381Z,72.62
2023-06-16T00:43:10.726Z,71.79
2023-06-16T00:44:12.735Z,72.32
2023-06-16T00:45:14.730Z,72.08
2023-06-16T00:46:29.030Z,72.98
2023-06-16T00:47:31.728Z,71.95
2023-06-16T00:48:33.762Z,72.27
2023-06-16T00:49:37.704Z,71.69
2023-06-16T00:50:39.825Z,72.58
2023-06-16T00:51:41.810Z,71.78
2023-06-16T00:52:43.849Z,72.24
2023-06-16T00:53:46.069Z,71.29
2023-06-16T00:54:48.123Z,72.17
2023-06-16T00:55:50.189Z,72.60
2023-06-16T00:56:52.866Z,71.39
2023-06-16T00:57:55.077Z,71.49
2023-06-16T00:58:57.473Z,72.61
2023-06-16T00:59:59.640Z,71.68
2023-06-16T01:01:01.658Z,71.91
2023-06-16T01:02:03.736Z,72.44
2023-06-16T01:03:06.037Z,72.87
2023-06-16T01:04:08.222Z,72.44
2023-06-16T01:05:10.282Z,71.75
2023-06-16T01:06:35.064Z,71.49
2023-06-16T01:07:41.050Z,71.84
2023-06-16T01:08:52.789Z,71.33
2023-06-16T01:10:03.313Z,70.41
2023-06-16T01:11:28.825Z,71.82
2023-06-16T01:12:40.612Z,71.30
2023-06-16T01:13:48.361Z,71.62
2023-06-16T01:14:54.690Z,71.34
2023-06-16T01:15:57.030Z,71.50
2023-06-16T01:16:59.290Z,69.94
2023-06-16T01:18:04.636Z,70.42
2023-06-16T01:19:10.729Z,71.30
2023-06-16T01:20:43.051Z,70.83
2023-06-16T01:21:58.712Z,70.96
2023-06-16T01:23:06.520Z,70.73
2023-06-16T01:24:18.394Z,70.29
2023-06-16T01:25:23.806Z,71.36
2023-06-16T01:26:27.504Z,72.29
2023-06-16T01:27:31.179Z,71.95
2023-06-16T01:28:33.578Z,71.32
2023-06-16T01:29:37.565Z,71.35
2023-06-16T01:30:43.698Z,72.60
2023-06-16T01:31:45.765Z,72.53
2023-06-16T01:32:48.316Z,72.46
2023-06-16T01:33:50.394Z,72.36
2023-06-16T01:34:52.600Z,72.48
2023-06-16T01:35:54.761Z,72.51
2023-06-16T01:36:56.774Z,72.55
2023-06-16T01:37:58.762Z,72.25
2023-06-16T01:39:01.467Z,71.99
2023-06-16T01:40:04.675Z,72.83
2023-06-16T01:41:06.918Z,72.27
2023-06-16T01:42:08.966Z,71.95
2023-06-16T01:43:11.119Z,73.13
2023-06-16T01:44:13.141Z,72.92
2023-06-16T01:45:16.134Z,73.18
2023-06-16T01:46:18.276Z,72.34
2023-06-16T01:47:21.125Z,72.19
2023-06-16T01:48:23.496Z,72.33
2023-06-16T01:49:25.618Z,72.06
2023-06-16T01:50:27.603Z,71.68
2023-06-16T01:51:29.564Z,71.56
2023-06-16T01:52:31.541Z,71.23
2023-06-16T01:53:33.556Z,72.61
2023-06-16T01:54:35.633Z,71.94
2023-06-16T01:55:37.747Z,72.29
2023-06-16T01:56:39.720Z,72.01
2023-06-16T01:57:44.632Z,71.71
2023-06-16T01:58:46.605Z,71.22
2023-06-16T01:59:51.628Z,71.36
2023-06-16T02:00:58.835Z,72.47
2023-06-16T02:02:07.674Z,72.65
2023-06-16T02:03:17.173Z,72.07
2023-06-16T02:04:21.493Z,71.31
2023-06-16T02:05:24.841Z,71.77
2023-06-16T02:06:35.034Z,72.11
2023-06-16T02:07:39.538Z,72.82
2023-06-16T02:08:41.552Z,71.75
2023-06-16T02:09:43.936Z,71.69
2023-06-16T02:10:46.056Z,72.42
2023-06-16T02:11:48.070Z,72.42
2023-06-16T02:12:50.095Z,71.98
2023-06-16T02:13:52.540Z,72.15
2023-06-16T02:14:54.628Z,72.78
2023-06-16T02:15:56.876Z,72.15
2023-06-16T02:16:58.919Z,72.59
2023-06-16T02:18:00.934Z,72.83
2023-06-16T02:19:02.931Z,72.49
2023-06-16T02:20:07.854Z,72.59
2023-06-16T02:21:09.869Z,72.95
2023-06-16T02:22:17.181Z,73.08
2023-06-16T02:23:19.150Z,72.74
2023-06-16T02:24:21.192Z,71.99
2023-06-16T02:25:23.262Z,72.05
2023-06-16T02:26:25.675Z,73.25
2023-06-16T02:27:27.948Z,72.47
2023-06-16T02:28:29.921Z,73.44
2023-06-16T02:29:32.652Z,72.90
2023-06-16T02:30:34.734Z,72.44
2023-06-16T02:31:37.032Z,72.41
2023-06-16T02:32:46.180Z,73.25
2023-06-16T02:33:55.862Z,72.58
2023-06-16T02:34:58.834Z,72.17
2023-06-16T02:36:00.819Z,72.34
2023-06-16T02:37:02.936Z,71.89
2023-06-16T02:38:04.963Z,71.93
2023-06-16T02:39:06.973Z,72.46
2023-06-16T02:40:09.416Z,72.15
2023-06-16T02:41:11.432Z,72.17
2023-06-16T02:42:13.764Z,73.07
2023-06-16T02:43:15.774Z,72.90
2023-06-16T02:44:17.751Z,72.33
2023-06-16T02:45:19.884Z,72.18
2023-06-16T02:46:26.002Z,72.06
2023-06-16T02:47:28.039Z,72.43
2023-06-16T02:48:32.743Z,70.95
2023-06-16T02:49:34.890Z,72.88
2023-06-16T02:50:37.144Z,73.34
2023-06-16T02:51:39.613Z,73.58
2023-06-16T02:52:42.508Z,73.12
2023-06-16T02:53:46.471Z,73.65
2023-06-16T02:54:48.510Z,72.78
2023-06-16T02:55:50.485Z,72.89
2023-06-16T02:56:52.485Z,72.80
2023-06-16T02:57:54.527Z,73.34
2023-06-16T02:58:56.754Z,73.37
2023-06-16T03:00:00.396Z,72.53
2023-06-16T03:01:02.987Z,72.27
2023-06-16T03:02:05.333Z,72.54
2023-06-16T03:03:08.711Z,72.75
2023-06-16T03:04:11.640Z,73.15
2023-06-16T03:05:15.786Z,72.62
2023-06-16T03:06:21.061Z,73.13
2023-06-16T03:07:23.686Z,73.20
2023-06-16T03:08:25.992Z,72.84
2023-06-16T03:09:27.965Z,72.94
2023-06-16T03:10:30.240Z,72.86
2023-06-16T03:11:32.969Z,73.41
2023-06-16T03:12:35.021Z,72.80
2023-06-16T03:13:38.254Z,72.52
2023-06-16T03:14:40.259Z,72.93
2023-06-16T03:15:43.819Z,72.89
2023-06-16T03:16:49.341Z,73.18
2023-06-16T03:17:51.427Z,73.80
2023-06-16T03:18:53.419Z,72.94
2023-06-16T03:19:55.418Z,72.86
2023-06-16T03:20:57.565Z,73.26
2023-06-16T03:21:59.610Z,72.64
2023-06-16T03:23:02.128Z,72.57
2023-06-16T03:24:04.275Z,73.02
2023-06-16T03:25:06.647Z,73.34
2023-06-16T03:26:08.711Z,73.26
2023-06-16T03:27:12.031Z,72.52
2023-06-16T03:28:14.551Z,73.11
2023-06-16T03:29:16.558Z,73.02
2023-06-16T03:30:19.235Z,73.09
2023-06-16T03:31:24.421Z,73.82
2023-06-16T03:32:26.467Z,73.61
2023-06-16T03:33:30.621Z,72.64
2023-06-16T03:34:34.147Z,73.44
2023-06-16T03:35:36.123Z,73.76
2023-06-16T03:36:40.301Z,73.91
2023-06-16T03:37:42.267Z,74.11
2023-06-16T03:38:44.319Z,74.45
2023-06-16T03:39:46.289Z,74.71
2023-06-16T03:40:48.382Z,74.77
2023-06-16T03:41:50.478Z,75.50
2023-06-16T03:42:52.461Z,74.39
2023-06-16T03:43:54.468Z,75.34
2023-06-16T03:44:56.471Z,75.21
2023-06-16T03:45:58.541Z,75.32
2023-06-16T03:47:00.590Z,74.16
2023-06-16T03:48:09.967Z,74.97
2023-06-16T03:49:13.203Z,74.18
2023-06-16T03:50:15.528Z,73.78
2023-06-16T03:51:18.239Z,74.17
2023-06-16T03:52:20.342Z,74.61
2023-06-16T03:53:22.454Z,73.93
2023-06-16T03:54:24.544Z,74.05
2023-06-16T03:55:26.622Z,74.29
2023-06-16T03:56:28.618Z,74.29
2023-06-16T03:57:30.628Z,74.13
2023-06-16T03:58:32.780Z,75.29
2023-06-16T03:59:34.846Z,75.48
2023-06-16T04:00:37.605Z,74.92
2023-06-16T04:01:39.713Z,75.29
2023-06-16T04:02:42.569Z,74.47
2023-06-16T04:03:45.398Z,75.58
2023-06-16T04:04:48.760Z,75.39
2023-06-16T04:05:51.060Z,74.75
2023-06-16T04:06:53.145Z,75.34
2023-06-16T04:07:58.395Z,74.08
2023-06-16T04:09:00.403Z,74.13
2023-06-16T04:10:02.743Z,74.45
2023-06-16T04:11:05.244Z,74.61
2023-06-16T04:12:07.564Z,74.46
2023-06-16T04:13:09.548Z,74.72
2023-06-16T04:14:11.798Z,73.95
2023-06-16T04:15:13.850Z,74.14
2023-06-16T04:16:16.060Z,72.42
2023-06-16T04:17:21.062Z,72.08
2023-06-16T04:18:26.186Z,73.58
2023-06-16T04:19:28.157Z,73.85
2023-06-16T04:20:30.162Z,74.72
2023-06-16T04:21:32.916Z,75.84
2023-06-16T04:22:34.952Z,75.92
2023-06-16T04:23:37.396Z,75.73
2023-06-16T04:24:39.457Z,75.67
2023-06-16T04:25:41.768Z,74.98
2023-06-16T04:26:43.767Z,75.55
2023-06-16T04:27:47.741Z,75.02
2023-06-16T04:28:54.730Z,75.71
2023-06-16T04:29:58.494Z,75.21
2023-06-16T04:31:01.662Z,75.52
2023-06-16T04:32:04.149Z,75.79
2023-06-16T04:33:06.667Z,76.63
2023-06-16T04:34:12.702Z,76.62
2023-06-16T04:35:14.668Z,76.07
2023-06-16T04:36:18.335Z,76.73
2023-06-16T04:37:20.343Z,76.30
2023-06-16T04:38:22.627Z,75.37
2023-06-16T04:39:25.013Z,76.60
2023-06-16T04:40:30.755Z,76.40
2023-06-16T04:41:36.473Z,76.58
2023-06-16T04:42:38.880Z,76.54
2023-06-16T04:43:40.859Z,77.12
2023-06-16T04:44:43.101Z,77.08
2023-06-16T04:45:45.140Z,77.10
2023-06-16T04:46:47.113Z,77.31
2023-06-16T04:47:51.682Z,77.38
2023-06-16T04:48:53.775Z,76.51
2023-06-16T04:49:55.742Z,77.20
2023-06-16T04:50:58.597Z,76.83
2023-06-16T04:52:00.634Z,76.95
2023-06-16T04:53:06.464Z,76.94
2023-06-16T04:54:08.477Z,77.11
2023-06-16T04:55:10.523Z,76.62
2023-06-16T04:56:12.512Z,77.14
2023-06-16T04:57:14.692Z,77.35
2023-06-16T04:58:16.825Z,78.15
2023-06-16T04:59:23.736Z,77.43
2023-06-16T05:00:29.071Z,78.15
2023-06-16T05:01:31.090Z,77.88
2023-06-16T05:02:33.641Z,78.13
2023-06-16T05:03:36.287Z,78.25
2023-06-16T05:04:39.622Z,78.25
2023-06-16T05:05:41.674Z,78.93
2023-06-16T05:06:43.869Z,78.56
2023-06-16T05:07:45.851Z,78.44
2023-06-16T05:08:47.870Z,78.82
2023-06-16T05:09:49.835Z,78.89
2023-06-16T05:10:51.800Z,78.62
2023-06-16T05:11:53.803Z,78.57
2023-06-16T05:12:55.907Z,77.75
2023-06-16T05:13:57.912Z,78.34
2023-06-16T05:14:59.890Z,78.51
2023-06-16T05:16:01.855Z,77.10
2023-06-16T05:17:04.004Z,78.33
2023-06-16T05:18:06.405Z,77.62
2023-06-16T05:19:08.741Z,78.08
2023-06-16T05:20:11.318Z,78.88
2023-06-16T05:21:13.297Z,78.49
2023-06-16T05:22:15.468Z,78.49
2023-06-16T05:23:17.493Z,78.38
2023-06-16T05:24:19.481Z,78.20
2023-06-16T05:25:24.506Z,78.69
2023-06-16T05:26:29.266Z,78.63
2023-06-16T05:27:31.235Z,78.76
2023-06-16T05:28:33.210Z,78.92
2023-06-16T05:29:35.215Z,79.37
2023-06-16T05:30:37.343Z,79.63
2023-06-16T05:31:39.432Z,78.72
2023-06-16T05:32:41.722Z,78.49
2023-06-16T05:33:43.791Z,77.47
2023-06-16T05:34:46.236Z,77.69
2023-06-16T05:35:48.207Z,76.86
2023-06-16T05:36:50.239Z,75.86
2023-06-16T05:37:52.232Z,76.47
2023-06-16T05:38:54.238Z,76.33
2023-06-16T05:39:56.253Z,76.83
2023-06-16T05:40:58.360Z,76.87
2023-06-16T05:42:00.354Z,75.50
2023-06-16T05:43:02.327Z,75.86
2023-06-16T05:44:04.335Z,76.01
2023-06-16T05:45:06.914Z,76.13
2023-06-16T05:46:08.982Z,75.80
2023-06-16T05:47:11.234Z,76.08
2023-06-16T05:48:13.340Z,75.43
2023-06-16T05:49:15.725Z,76.15
2023-06-16T05:50:17.973Z,75.90
2023-06-16T05:51:20.250Z,75.49
2023-06-16T05:52:22.289Z,76.05
2023-06-16T05:53:24.319Z,75.90
2023-06-16T05:54:26.382Z,74.98
2023-06-16T05:55:28.453Z,75.00
2023-06-16T05:56:30.690Z,73.91
2023-06-16T05:57:32.749Z,74.71
2023-06-16T05:58:36.919Z,74.42
2023-06-16T05:59:38.996Z,75.23
2023-06-16T06:00:41.999Z,76.10
2023-06-16T06:01:44.047Z,73.14
2023-06-16T06:02:46.285Z,75.31
2023-06-16T06:03:48.686Z,75.24
2023-06-16T06:04:51.165Z,75.69
2023-06-16T06:05:53.172Z,75.95
2023-06-16T06:06:55.334Z,76.03
2023-06-16T06:07:57.372Z,72.44
2023-06-16T06:08:59.474Z,72.94
2023-06-16T06:10:01.680Z,73.45
2023-06-16T06:11:06.094Z,73.67
2023-06-16T06:12:09.481Z,72.69
2023-06-16T06:13:11.512Z,72.25
2023-06-16T06:14:19.294Z,73.37
2023-06-16T06:15:21.324Z,72.12
2023-06-16T06:16:23.500Z,74.00
2023-06-16T06:17:25.768Z,74.26
2023-06-16T06:18:27.819Z,74.44
2023-06-16T06:19:29.852Z,74.69
2023-06-16T06:20:31.869Z,74.67
2023-06-16T06:21:38.148Z,75.23
2023-06-16T06:22:40.166Z,75.42
2023-06-16T06:23:42.137Z,72.88
2023-06-16T06:24:44.105Z,72.98
2023-06-16T06:25:46.212Z,73.53
2023-06-16T06:26:48.253Z,74.03
2023-06-16T06:27:50.233Z,75.65
2023-06-16T06:28:52.260Z,75.08
2023-06-16T06:29:54.293Z,74.82
2023-06-16T06:30:56.271Z,73.40
2023-06-16T06:31:58.282Z,72.69
2023-06-16T06:33:01.385Z,74.29
2023-06-16T06:34:03.460Z,74.97
2023-06-16T06:35:05.899Z,74.89
2023-06-16T06:36:08.062Z,74.66
2023-06-16T06:37:17.539Z,75.11
2023-06-16T06:38:19.555Z,75.00
2023-06-16T06:39:21.642Z,75.16
2023-06-16T06:40:23.841Z,75.66
2023-06-16T06:41:26.706Z,75.08
2023-06-16T06:42:29.074Z,75.27
2023-06-16T06:43:31.043Z,74.49
2023-06-16T06:44:33.008Z,74.27
2023-06-16T06:45:35.000Z,72.33
2023-06-16T06:46:37.048Z,73.51
2023-06-16T06:47:40.188Z,72.82
2023-06-16T06:48:42.608Z,73.40
2023-06-16T06:49:44.648Z,72.81
2023-06-16T06:50:47.319Z,72.57
2023-06-16T06:51:49.338Z,71.98
2023-06-16T06:52:53.580Z,72.79
2023-06-16T06:53:55.877Z,72.44
2023-06-16T06:54:58.062Z,71.20
2023-06-16T06:56:00.051Z,71.90
2023-06-16T06:57:02.193Z,72.68
2023-06-16T06:58:04.299Z,70.31
2023-06-16T06:59:06.539Z,69.96
2023-06-16T07:00:09.110Z,72.19
2023-06-16T07:01:11.161Z,71.76
2023-06-16T07:02:13.226Z,72.39
2023-06-16T07:03:15.412Z,70.16
2023-06-16T07:04:17.755Z,69.70
2023-06-16T07:05:19.989Z,70.59
2023-06-16T07:06:22.439Z,71.20
2023-06-16T07:07:24.517Z,70.39
2023-06-16T07:08:26.634Z,71.35
2023-06-16T07:09:31.271Z,72.15
2023-06-16T07:10:34.094Z,69.00
2023-06-16T07:11:38.957Z,69.54
2023-06-16T07:12:42.099Z,71.93
2023-06-16T07:13:44.139Z,71.63
2023-06-16T07:14:46.964Z,72.24
2023-06-16T07:15:49.094Z,71.75
2023-06-16T07:16:51.408Z,72.12
2023-06-16T07:17:53.464Z,72.57
2023-06-16T07:18:55.477Z,72.02
2023-06-16T07:19:57.541Z,70.61
2023-06-16T07:20:59.532Z,70.45
2023-06-16T07:22:02.003Z,71.15
2023-06-16T07:23:04.035Z,71.32
2023-06-16T07:24:07.172Z,69.53
2023-06-16T07:25:09.621Z,70.02
2023-06-16T07:26:11.680Z,70.73
2023-06-16T07:27:13.787Z,71.11
2023-06-16T07:28:15.868Z,71.63
2023-06-16T07:29:19.153Z,71.57
2023-06-16T07:30:21.330Z,71.54
2023-06-16T07:31:23.520Z,70.86
2023-06-16T07:32:25.662Z,71.28
2023-06-16T07:33:27.821Z,70.58
2023-06-16T07:34:34.206Z,70.77
2023-06-16T07:35:37.251Z,71.33
2023-06-16T07:36:40.609Z,71.38
2023-06-16T07:37:42.600Z,71.06
2023-06-16T07:38:44.705Z,70.24
2023-06-16T07:39:46.722Z,69.65
2023-06-16T07:40:48.778Z,68.33
2023-06-16T07:41:50.846Z,68.53
2023-06-16T07:42:52.838Z,67.50
2023-06-16T07:43:54.893Z,67.93
2023-06-16T07:44:56.908Z,64.80
2023-06-16T07:45:59.020Z,65.73
2023-06-16T07:47:01.162Z,65.60
2023-06-16T07:48:04.041Z,66.44
2023-06-16T07:49:06.073Z,67.75
2023-06-16T07:50:08.842Z,67.98
2023-06-16T07:51:10.912Z,66.42
2023-06-16T07:52:16.969Z,67.98
2023-06-16T07:53:19.835Z,68.41
2023-06-16T07:54:21.917Z,65.54
2023-06-16T07:55:23.911Z,64.32
2023-06-16T07:56:25.940Z,64.54
2023-06-16T07:57:29.097Z,63.71
2023-06-16T07:58:33.181Z,65.25
2023-06-16T07:59:35.336Z,67.79
2023-06-16T08:00:37.311Z,67.33
2023-06-16T08:01:39.367Z,68.20
2023-06-16T08:02:41.641Z,68.21
2023-06-16T08:03:48.049Z,65.62
2023-06-16T08:04:50.307Z,63.63
2023-06-16T08:05:52.298Z,65.57
2023-06-16T08:06:54.302Z,69.14
2023-06-16T08:07:56.278Z,68.71
2023-06-16T08:08:58.315Z,68.81
2023-06-16T08:10:00.323Z,69.24
2023-06-16T08:11:02.716Z,64.71
2023-06-16T08:12:05.952Z,63.66
2023-06-16T08:13:08.023Z,67.62
2023-06-16T08:14:10.041Z,66.53
2023-06-16T08:15:12.205Z,67.66
2023-06-16T08:16:14.256Z,66.45
2023-06-16T08:17:16.619Z,66.89
2023-06-16T08:18:19.264Z,68.11
2023-06-16T08:19:21.286Z,67.95
2023-06-16T08:20:27.052Z,68.69
2023-06-16T08:21:29.031Z,65.82
2023-06-16T08:22:31.032Z,65.01
2023-06-16T08:23:33.036Z,67.39
2023-06-16T08:24:35.164Z,67.64
2023-06-16T08:25:37.357Z,68.56
2023-06-16T08:26:41.818Z,67.83
2023-06-16T08:27:44.114Z,67.90
2023-06-16T08:28:46.169Z,67.93
2023-06-16T08:29:48.936Z,64.22
2023-06-16T08:30:51.099Z,66.00
2023-06-16T08:31:53.080Z,65.66
2023-06-16T08:32:55.137Z,65.54
2023-06-16T08:33:58.125Z,60.98
2023-06-16T08:35:00.163Z,61.41
2023-06-16T08:36:02.470Z,62.72
2023-06-16T08:37:11.068Z,62.10
2023-06-16T08:38:22.691Z,64.46
2023-06-16T08:39:24.672Z,64.40
2023-06-16T08:40:29.811Z,62.77
2023-06-16T08:41:31.902Z,60.27
2023-06-16T08:42:34.585Z,61.70
2023-06-16T08:43:39.630Z,60.01
2023-06-16T08:44:41.664Z,59.79
2023-06-16T08:45:46.389Z,59.62
2023-06-16T08:46:49.034Z,59.21
2023-06-16T08:47:51.448Z,60.35
2023-06-16T08:48:53.585Z,59.93
2023-06-16T08:49:57.455Z,58.24
2023-06-16T08:51:00.768Z,57.85
2023-06-16T08:52:07.473Z,59.44
2023-06-16T08:53:11.231Z,58.83
2023-06-16T08:54:14.210Z,60.25
2023-06-16T08:55:16.625Z,57.58
2023-06-16T08:56:19.270Z,58.58
2023-06-16T08:57:21.269Z,59.31
2023-06-16T08:58:23.268Z,61.47
2023-06-16T08:59:26.318Z,61.57
2023-06-16T09:00:28.952Z,62.00
2023-06-16T09:01:31.250Z,61.93
2023-06-16T09:02:34.662Z,61.59
2023-06-16T09:03:38.711Z,61.76
2023-06-16T09:04:42.884Z,62.13
2023-06-16T09:05:44.994Z,61.95
2023-06-16T09:06:47.232Z,59.51
2023-06-16T09:07:51.243Z,58.22
2023-06-16T09:08:56.073Z,57.13
2023-06-16T09:09:58.103Z,57.06
2023-06-16T09:11:06.209Z,59.31
2023-06-16T09:12:14.208Z,59.70
2023-06-16T09:13:17.490Z,59.97
2023-06-16T09:14:21.564Z,61.00
2023-06-16T09:15:24.184Z,62.30
2023-06-16T09:16:26.274Z,61.23
2023-06-16T09:17:34.919Z,60.68
2023-06-16T09:18:45.986Z,60.40
2023-06-16T09:19:49.219Z,59.48
2023-06-16T09:20:54.558Z,58.92
2023-06-16T09:21:58.166Z,58.89
2023-06-16T09:23:01.126Z,56.09
2023-06-16T09:24:03.353Z,56.26
2023-06-16T09:25:07.038Z,53.27
2023-06-16T09:26:15.383Z,52.96
2023-06-16T09:27:17.955Z,53.47
2023-06-16T09:28:20.137Z,52.14
2023-06-16T09:29:23.386Z,53.61
2023-06-16T09:30:31.947Z,49.25
2023-06-16T09:31:34.024Z,50.95
2023-06-16T09:32:39.341Z,50.42
2023-06-16T09:33:42.081Z,52.82
2023-06-16T09:34:45.138Z,49.11
2023-06-16T09:35:49.154Z,53.98
2023-06-16T09:36:52.287Z,52.55
2023-06-16T09:37:58.520Z,54.08
2023-06-16T09:39:00.878Z,54.60
2023-06-16T09:40:08.305Z,55.95
2023-06-16T09:41:17.252Z,53.83
2023-06-16T09:42:19.855Z,52.18
2023-06-16T09:43:24.838Z,53.91
2023-06-16T09:44:27.032Z,52.84
2023-06-16T09:45:31.386Z,53.00
2023-06-16T09:46:33.578Z,55.12
2023-06-16T09:47:38.303Z,54.93
2023-06-16T09:48:50.200Z,53.46
2023-06-16T09:49:54.877Z,54.58
2023-06-16T09:50:58.745Z,52.60
2023-06-16T09:52:00.784Z,53.17
2023-06-16T09:53:07.569Z,53.95
2023-06-16T09:54:09.872Z,55.52
2023-06-16T09:55:15.815Z,54.78
2023-06-16T09:56:18.301Z,53.53
2023-06-16T09:57:20.271Z,54.84
2023-06-16T09:58:33.697Z,50.80
2023-06-16T09:59:44.667Z,50.46
2023-06-16T10:00:46.842Z,54.63
2023-06-16T10:01:48.840Z,57.86
2023-06-16T10:02:54.247Z,57.41
2023-06-16T10:03:57.343Z,59.73
2023-06-16T10:05:00.413Z,55.12
2023-06-16T10:06:03.207Z,57.35
2023-06-16T10:07:06.092Z,58.01
2023-06-16T10:08:08.555Z,59.92
2023-06-16T10:09:11.343Z,61.38
2023-06-16T10:10:13.481Z,60.19
2023-06-16T10:11:19.025Z,60.77
2023-06-16T10:12:21.412Z,60.82
2023-06-16T10:13:23.486Z,61.31
2023-06-16T10:14:31.391Z,58.89
2023-06-16T10:15:38.810Z,60.86
2023-06-16T10:16:40.870Z,58.37
2023-06-16T10:17:42.946Z,59.88
2023-06-16T10:18:48.560Z,56.47
2023-06-16T10:19:52.050Z,54.29
2023-06-16T10:20:54.164Z,54.99
2023-06-16T10:21:56.167Z,56.38
2023-06-16T10:22:58.138Z,54.90
2023-06-16T10:24:02.256Z,56.01
2023-06-16T10:25:07.300Z,55.51
2023-06-16T10:26:09.299Z,57.25
2023-06-16T10:27:11.867Z,52.65
2023-06-16T10:28:15.712Z,56.41
2023-06-16T10:29:18.799Z,54.33
2023-06-16T10:30:21.711Z,51.93
2023-06-16T10:31:26.497Z,51.04
2023-06-16T10:32:28.579Z,50.83
2023-06-16T10:33:33.156Z,46.87
2023-06-16T10:34:39.401Z,49.86
2023-06-16T10:35:49.864Z,51.29
2023-06-16T10:36:55.798Z,48.81
2023-06-16T10:37:57.809Z,49.59
2023-06-16T10:39:09.405Z,44.83
2023-06-16T10:40:15.453Z,45.00
2023-06-16T10:41:18.315Z,44.55
2023-06-16T10:42:20.485Z,45.35
2023-06-16T10:43:26.507Z,47.05
2023-06-16T10:44:30.422Z,48.10
2023-06-16T10:45:40.544Z,47.46
2023-06-16T10:46:42.729Z,48.10
2023-06-16T10:47:56.393Z,48.83
2023-06-16T10:49:21.637Z,48.80
2023-06-16T10:50:48.054Z,51.58
2023-06-16T10:51:50.591Z,50.76
2023-06-16T10:52:55.776Z,50.57
2023-06-16T10:53:57.828Z,47.80
2023-06-16T10:55:33.423Z,49.18
2023-06-16T10:57:11.347Z,48.46
2023-06-16T10:58:15.966Z,47.24
2023-06-16T10:59:18.154Z,48.18
2023-06-16T11:00:20.394Z,45.14
2023-06-16T11:01:24.504Z,44.04
2023-06-16T11:02:31.847Z,43.32
2023-06-16T11:03:37.747Z,44.56
2023-06-16T11:04:39.880Z,44.76
2023-06-16T11:05:42.020Z,46.10
2023-06-16T11:07:16.325Z,48.19
2023-06-16T11:08:32.145Z,50.19
2023-06-16T11:09:34.141Z,50.00
2023-06-16T11:10:54.521Z,51.51
2023-06-16T11:11:59.423Z,50.05
2023-06-16T11:13:01.682Z,49.28
2023-06-16T11:14:03.694Z,47.47
2023-06-16T11:15:06.208Z,49.30
2023-06-16T11:16:08.258Z,49.87
2023-06-16T11:17:10.353Z,47.43
2023-06-16T11:18:13.763Z,47.11
2023-06-16T11:19:19.071Z,46.55
2023-06-16T11:20:21.828Z,42.37
2023-06-16T11:21:31.689Z,44.22
2023-06-16T11:22:34.669Z,48.30
2023-06-16T11:23:36.787Z,49.68
2023-06-16T11:24:41.304Z,44.14
2023-06-16T11:25:43.325Z,51.14
2023-06-16T11:26:45.344Z,48.05
2023-06-16T11:27:47.364Z,49.88
2023-06-16T11:28:49.565Z,49.26
2023-06-16T11:29:55.083Z,46.35
2023-06-16T11:30:57.100Z,47.33
2023-06-16T11:32:00.629Z,49.14
2023-06-16T11:33:03.113Z,48.81
2023-06-16T11:34:05.532Z,48.34
2023-06-16T11:35:07.982Z,47.04
2023-06-16T11:36:31.800Z,49.87
2023-06-16T11:38:03.060Z,50.01
2023-06-16T11:39:09.388Z,48.73
2023-06-16T11:40:12.854Z,50.62
2023-06-16T11:41:19.353Z,50.27
2023-06-16T11:42:21.390Z,49.19
2023-06-16T11:43:23.950Z,50.51
2023-06-16T11:44:26.519Z,50.81
2023-06-16T11:45:29.594Z,50.58
2023-06-16T11:46:34.275Z,52.64
2023-06-16T11:47:36.419Z,52.33
2023-06-16T11:48:39.180Z,46.41
2023-06-16T11:49:41.193Z,46.55
2023-06-16T11:50:43.225Z,49.99
2023-06-16T11:51:45.235Z,48.52
2023-06-16T11:52:47.203Z,49.94
2023-06-16T11:53:49.187Z,49.32
2023-06-16T11:54:51.170Z,48.75
2023-06-16T11:55:53.234Z,49.16
2023-06-16T11:56:59.090Z,46.63
2023-06-16T11:58:01.107Z,47.43
2023-06-16T11:59:04.719Z,47.40
2023-06-16T12:00:08.217Z,46.21
2023-06-16T12:01:14.136Z,48.27
2023-06-16T12:02:16.495Z,47.66
2023-06-16T12:03:18.641Z,45.02
2023-06-16T12:04:20.958Z,44.96
2023-06-16T12:05:28.363Z,44.91
2023-06-16T12:06:30.788Z,45.30
2023-06-16T12:07:32.986Z,45.54
2023-06-16T12:08:48.090Z,46.60
2023-06-16T12:09:55.463Z,49.13
2023-06-16T12:10:57.448Z,47.37
2023-06-16T12:11:59.619Z,41.71
2023-06-16T12:13:01.789Z,42.32
2023-06-16T12:14:03.818Z,45.24
2023-06-16T12:15:06.410Z,43.85
2023-06-16T12:16:09.044Z,43.12
2023-06-16T12:17:11.137Z,41.83
2023-06-16T12:18:13.263Z,42.56
2023-06-16T12:19:21.613Z,40.08
2023-06-16T12:20:23.966Z,38.43
2023-06-16T12:21:29.840Z,37.38
2023-06-16T12:22:40.551Z,38.58
2023-06-16T12:23:42.550Z,38.20
2023-06-16T12:24:44.567Z,39.22
2023-06-16T12:25:49.959Z,39.45
2023-06-16T12:26:53.225Z,37.98
2023-06-16T12:27:58.406Z,37.39
2023-06-16T12:29:08.994Z,37.11
2023-06-16T12:30:11.799Z,39.80
2023-06-16T12:31:13.814Z,36.27
2023-06-16T12:32:16.156Z,37.41
2023-06-16T12:33:18.339Z,37.53
2023-06-16T12:34:37.173Z,38.26
2023-06-16T12:35:39.948Z,37.75
2023-06-16T12:36:42.436Z,36.00
2023-06-16T12:37:44.444Z,38.39
2023-06-16T12:38:49.885Z,36.14
2023-06-16T12:40:02.003Z,38.36
2023-06-16T12:41:04.064Z,39.62
2023-06-16T12:42:06.964Z,38.18
2023-06-16T12:43:24.509Z,37.56
2023-06-16T12:44:50.474Z,36.95
2023-06-16T12:45:53.093Z,37.47
2023-06-16T12:46:55.152Z,36.73
2023-06-16T12:47:57.179Z,38.57
2023-06-16T12:48:59.359Z,37.40
2023-06-16T12:50:02.181Z,36.74
2023-06-16T12:51:04.153Z,37.23
2023-06-16T12:52:07.325Z,37.33
2023-06-16T12:53:10.222Z,36.63
2023-06-16T12:54:12.837Z,38.22
2023-06-16T12:55:14.911Z,38.79
2023-06-16T12:56:17.005Z,40.27
2023-06-16T12:57:19.540Z,37.85
2023-06-16T12:58:21.578Z,37.34
2023-06-16T12:59:23.585Z,38.38
2023-06-16T13:00:28.929Z,37.96
2023-06-16T13:01:31.118Z,38.10
2023-06-16T13:02:33.234Z,42.77
2023-06-16T13:03:35.872Z,41.59
2023-06-16T13:04:38.068Z,43.24
2023-06-16T13:05:40.184Z,41.51
2023-06-16T13:06:42.185Z,39.94
2023-06-16T13:07:44.377Z,38.52
2023-06-16T13:08:48.191Z,39.83
2023-06-16T13:09:50.396Z,39.70
2023-06-16T13:10:52.488Z,38.72
2023-06-16T13:11:57.127Z,37.80
2023-06-16T13:12:59.609Z,39.05
2023-06-16T13:14:03.263Z,38.26
2023-06-16T13:15:05.623Z,39.40
2023-06-16T13:16:07.686Z,41.72
2023-06-16T13:17:09.741Z,41.11
2023-06-16T13:18:11.838Z,40.43
2023-06-16T13:19:13.902Z,41.73
2023-06-16T13:20:15.955Z,41.99
2023-06-16T13:21:17.991Z,42.18
2023-06-16T13:22:19.952Z,41.78
2023-06-16T13:23:23.127Z,42.17
2023-06-16T13:24:25.193Z,41.53
2023-06-16T13:25:27.251Z,42.62
2023-06-16T13:26:29.226Z,46.15
2023-06-16T13:27:31.196Z,45.34
2023-06-16T13:28:33.198Z,43.55
2023-06-16T13:29:35.250Z,43.33
2023-06-16T13:30:37.821Z,41.93
2023-06-16T13:31:39.945Z,43.70
2023-06-16T13:32:41.999Z,40.71
2023-06-16T13:33:44.060Z,41.50
2023-06-16T13:34:46.098Z,42.61
2023-06-16T13:35:48.131Z,40.49
2023-06-16T13:36:50.136Z,43.17
2023-06-16T13:37:52.578Z,41.04
2023-06-16T13:38:54.643Z,40.41